Time;durP1;ratioP1;P1;durP2;ratioP2;P2;SDS_P1;SDS_P2;PMS_P1;PMS_P2;Temp;Humidity;BMP_temperature;BMP_pressure;BME280_temperature;BME280_humidity;BME280_pressure;Samples;Min_cycle;Max_cycle;Signal;HPM_P1;HPM_P2
2022/02/25 00:02:20;;;;;;;37.55;18.15;;;102.40;2227.20;;;;;;4935650;29;20478;-62
2022/02/25 00:04:46;;;;;;;34.40;17.05;;;77.70;2227.20;;;;;;4935799;29;20060;-63
2022/02/25 00:07:12;;;;;;;42.78;19.45;;;102.40;2227.20;;;;;;4935538;29;20058;-65
2022/02/25 00:09:38;;;;;;;32.72;15.65;;;77.70;2227.20;;;;;;4926319;29;20482;-65
2022/02/25 00:12:04;;;;;;;30.00;15.23;;;102.40;2227.20;;;;;;4936668;29;20040;-64
2022/02/25 00:14:29;;;;;;;29.52;14.75;;;102.40;2227.20;;;;;;4936488;29;20103;-66
2022/02/25 00:16:55;;;;;;;64.50;27.33;;;102.50;2227.20;;;;;;4937105;29;20106;-61
2022/02/25 00:19:21;;;;;;;73.47;29.25;;;102.50;2227.20;;;;;;4935566;29;20071;-65
2022/02/25 00:21:47;;;;;;;35.38;17.13;;;102.40;2227.20;;;;;;4934999;29;20032;-64
2022/02/25 00:24:12;;;;;;;35.25;16.05;;;102.40;2227.20;;;;;;4934916;29;20071;-62
2022/02/25 00:26:38;;;;;;;41.35;19.77;;;77.70;2227.20;;;;;;4935767;29;20071;-60
2022/02/25 00:29:05;;;;;;;47.50;19.73;;;77.60;2227.20;;;;;;4935545;29;20427;-67
2022/02/25 00:31:32;;;;;;;40.83;19.08;;;77.60;2227.20;;;;;;4935864;29;20028;-72
2022/02/25 00:33:58;;;;;;;36.88;17.45;;;77.60;2227.20;;;;;;4936693;29;20019;-68
2022/02/25 00:36:24;;;;;;;32.72;15.55;;;77.50;2227.20;;;;;;4926921;29;20536;-69
2022/02/25 00:38:50;;;;;;;36.05;16.20;;;77.40;2227.20;;;;;;4936423;29;20272;-69
2022/02/25 00:41:16;;;;;;;37.05;17.48;;;77.30;2227.20;;;;;;4935818;29;20041;-67
2022/02/25 00:43:42;;;;;;;36.70;16.77;;;77.30;2227.20;;;;;;4936090;29;20104;-66
2022/02/25 00:46:08;;;;;;;37.92;17.52;;;77.30;2227.20;;;;;;4935302;29;20524;-65
2022/02/25 00:48:34;;;;;;;36.05;16.48;;;77.20;2227.20;;;;;;4935364;29;20035;-67
2022/02/25 00:50:59;;;;;;;36.63;16.90;;;77.30;2227.20;;;;;;4935512;29;20174;-66
2022/02/25 00:53:25;;;;;;;47.15;19.35;;;77.30;2227.20;;;;;;4935303;29;20382;-65
2022/02/25 00:55:51;;;;;;;34.78;15.80;;;77.20;2227.20;;;;;;4935516;29;20106;-69
2022/02/25 00:58:17;;;;;;;42.47;18.58;;;77.30;2227.20;;;;;;4934425;29;20466;-66
2022/02/25 01:00:42;;;;;;;30.80;15.00;;;77.20;2227.20;;;;;;4935044;29;20024;-65
2022/02/25 01:03:08;;;;;;;41.63;17.67;;;77.30;2227.20;;;;;;4935255;29;20426;-67
2022/02/25 01:05:34;;;;;;;32.75;14.77;;;77.20;2227.20;;;;;;4935147;29;20046;-61
2022/02/25 01:08:05;;;;;;;40.08;16.65;;;77.10;2227.20;;;;;;4935023;29;20039;-65
2022/02/25 01:10:32;;;;;;;40.22;17.70;;;77.20;2227.20;;;;;;4931261;29;20454;-64
2022/02/25 01:12:57;;;;;;;39.42;17.17;;;77.10;2227.20;;;;;;4934441;29;20028;-67
2022/02/25 01:15:24;;;;;;;41.55;18.40;;;77.10;2227.20;;;;;;4934951;29;20390;-63
2022/02/25 01:17:49;;;;;;;37.17;16.88;;;77.00;2227.20;;;;;;4923126;29;20040;-61
2022/02/25 01:20:17;;;;;;;37.97;16.30;;;77.00;2227.20;;;;;;4934628;29;20038;-63
2022/02/25 01:22:44;;;;;;;30.48;14.23;;;77.00;2227.20;;;;;;4934791;29;20074;-67
2022/02/25 01:25:10;;;;;;;37.00;15.77;;;77.00;2227.20;;;;;;4934839;29;20066;-65
2022/02/25 01:27:36;;;;;;;29.42;14.57;;;77.00;2227.20;;;;;;4934809;29;20094;-64
2022/02/25 01:30:03;;;;;;;27.23;13.27;;;76.90;2227.20;;;;;;4934953;29;20038;-66
2022/02/25 01:32:29;;;;;;;27.45;13.85;;;76.80;2227.20;;;;;;4931930;29;20079;-67
2022/02/25 01:34:56;;;;;;;32.42;16.17;;;52.10;2227.20;;;;;;4936294;29;20031;-67
2022/02/25 01:37:22;;;;;;;33.15;15.75;;;52.00;2227.20;;;;;;4938852;29;20087;-63
2022/02/25 01:39:48;;;;;;;32.15;15.30;;;52.10;2227.20;;;;;;4938182;29;20426;-65
2022/02/25 01:42:13;;;;;;;30.25;14.48;;;52.10;2227.20;;;;;;4938442;29;20422;-64
2022/02/25 01:44:41;;;;;;;28.75;14.50;;;52.10;2227.20;;;;;;4938498;29;20537;-68
2022/02/25 01:47:08;;;;;;;32.75;14.70;;;76.80;2227.20;;;;;;4933435;29;20482;-61
2022/02/25 01:49:35;;;;;;;29.05;14.50;;;76.80;2227.20;;;;;;4920765;29;20121;-67
2022/02/25 01:52:04;;;;;;;30.70;14.25;;;76.80;2227.20;;;;;;4938153;29;20028;-64
2022/02/25 01:54:31;;;;;;;31.48;14.55;;;76.90;2227.20;;;;;;4936101;29;20028;-64
2022/02/25 01:56:59;;;;;;;28.95;14.98;;;77.00;2227.20;;;;;;4938282;29;20043;-67
2022/02/25 01:59:30;;;;;;;31.73;15.05;;;76.90;2227.20;;;;;;4938008;29;20039;-64
2022/02/25 02:01:58;;;;;;;29.00;14.55;;;76.80;2227.20;;;;;;4938242;29;20070;-67
2022/02/25 02:04:24;;;;;;;30.63;13.85;;;76.80;2227.20;;;;;;4920730;29;20043;-62
2022/02/25 02:06:51;;;;;;;32.03;14.15;;;52.10;2227.20;;;;;;4938178;29;20028;-67
2022/02/25 02:09:17;;;;;;;27.00;14.13;;;52.00;2227.20;;;;;;4938142;29;20051;-62
2022/02/25 02:11:46;;;;;;;30.38;15.07;;;52.00;2227.20;;;;;;4937844;29;20497;-62
2022/02/25 02:14:17;;;;;;;29.88;14.85;;;52.00;2227.20;;;;;;4937891;29;20030;-66
2022/02/25 02:16:44;;;;;;;28.08;14.70;;;52.00;2227.20;;;;;;4938068;29;20034;-67
2022/02/25 02:19:10;;;;;;;28.40;14.25;;;52.00;2227.20;;;;;;4939517;29;20027;-65
2022/02/25 02:21:44;;;;;;;32.95;14.80;;;52.00;2227.20;;;;;;4937713;29;20115;-66
2022/02/25 02:24:11;;;;;;;29.40;14.60;;;52.00;2227.20;;;;;;4937667;29;20462;-63
2022/02/25 02:26:39;;;;;;;30.00;15.15;;;52.10;2227.20;;;;;;4937710;29;20097;-67
2022/02/25 02:29:06;;;;;;;31.33;14.95;;;52.10;2227.20;;;;;;4937557;29;20389;-64
2022/02/25 02:31:35;;;;;;;41.58;18.75;;;52.10;2227.20;;;;;;4937330;29;20031;-63
2022/02/25 02:34:01;;;;;;;39.28;16.80;;;52.10;2227.20;;;;;;4937201;29;20030;-60
2022/02/25 02:36:27;;;;;;;36.17;18.05;;;52.10;2227.20;;;;;;4937718;29;20040;-66
2022/02/25 02:38:54;;;;;;;40.33;18.63;;;52.10;2227.20;;;;;;4936360;29;20133;-66
2022/02/25 02:41:19;;;;;;;35.50;17.23;;;52.10;2227.20;;;;;;4936920;29;20043;-62
2022/02/25 02:43:45;;;;;;;35.33;17.73;;;52.10;2227.20;;;;;;4919033;29;20075;-66
2022/02/25 02:46:14;;;;;;;38.28;17.60;;;52.10;2227.20;;;;;;4936405;29;20443;-63
2022/02/25 02:48:41;;;;;;;37.05;17.60;;;76.80;2227.20;;;;;;4937242;29;20031;-67
2022/02/25 02:51:08;;;;;;;32.83;16.73;;;76.80;2227.20;;;;;;4921735;29;20028;-61
2022/02/25 02:53:34;;;;;;;34.60;17.13;;;76.90;2227.20;;;;;;4937130;29;20047;-62
2022/02/25 02:56:01;;;;;;;34.03;17.20;;;76.90;2227.20;;;;;;4936989;29;20028;-68
2022/02/25 02:58:26;;;;;;;32.10;16.83;;;76.90;2227.20;;;;;;4937749;29;20051;-66
2022/02/25 03:00:53;;;;;;;33.17;15.82;;;76.90;2227.20;;;;;;4937517;29;20488;-63
2022/02/25 03:03:19;;;;;;;32.80;16.95;;;77.00;2227.20;;;;;;4937829;29;20055;-65
2022/02/25 03:05:45;;;;;;;34.65;17.30;;;77.00;2227.20;;;;;;4937504;29;20040;-65
2022/02/25 03:08:11;;;;;;;36.80;17.73;;;77.00;2227.20;;;;;;4936955;29;20059;-67
2022/02/25 03:10:38;;;;;;;35.33;16.70;;;77.10;2227.20;;;;;;4956108;29;20079;-63
2022/02/25 03:13:05;;;;;;;32.67;16.65;;;77.10;2227.20;;;;;;4956247;29;20541;-63
2022/02/25 03:15:31;;;;;;;34.00;17.48;;;77.00;2227.20;;;;;;4956243;29;20131;-67
2022/02/25 03:17:58;;;;;;;34.80;18.90;;;77.00;2227.20;;;;;;4956264;29;20485;-64
2022/02/25 03:20:24;;;;;;;36.88;18.50;;;77.20;2227.20;;;;;;4956326;29;20027;-66
2022/02/25 03:22:51;;;;;;;34.67;17.90;;;77.10;2227.20;;;;;;4956431;29;20055;-64
2022/02/25 03:25:19;;;;;;;45.72;21.40;;;77.10;2227.20;;;;;;4956211;29;20039;-65
2022/02/25 03:27:45;;;;;;;48.67;22.45;;;77.10;2227.20;;;;;;4954327;28;20090;-61
2022/02/25 03:30:11;;;;;;;45.38;20.50;;;77.10;2227.20;;;;;;4956023;29;20038;-62
2022/02/25 03:32:39;;;;;;;40.88;19.45;;;77.10;2227.20;;;;;;4955673;29;20131;-66
2022/02/25 03:35:05;;;;;;;38.20;17.98;;;77.10;2227.20;;;;;;4955932;29;20039;-61
2022/02/25 03:37:31;;;;;;;39.75;18.75;;;77.10;2227.20;;;;;;4956273;29;20426;-62
2022/02/25 03:39:58;;;;;;;38.25;18.63;;;77.10;2227.20;;;;;;4955867;29;20092;-63
2022/02/25 03:42:24;;;;;;;36.53;18.42;;;77.10;2227.20;;;;;;4954413;29;20042;-65
2022/02/25 03:44:49;;;;;;;41.38;19.42;;;77.20;2227.20;;;;;;4955901;29;20031;-63
2022/02/25 03:47:16;;;;;;;34.42;18.25;;;77.20;2227.20;;;;;;4955772;29;20046;-66
2022/02/25 03:49:42;;;;;;;37.13;19.13;;;77.20;2227.20;;;;;;4955604;29;20036;-65
2022/02/25 03:52:08;;;;;;;37.00;19.08;;;77.30;2227.20;;;;;;4955750;29;20035;-63
2022/02/25 03:54:33;;;;;;;42.28;21.88;;;77.30;2227.20;;;;;;4955621;29;20382;-62
2022/02/25 03:57:01;;;;;;;50.35;23.80;;;77.60;2227.20;;;;;;4955350;29;20039;-69
2022/02/25 03:59:27;;;;;;;42.90;21.48;;;77.40;2227.20;;;;;;4954553;28;20395;-63
2022/02/25 04:01:53;;;;;;;41.58;19.92;;;77.40;2227.20;;;;;;4953997;29;20035;-65
2022/02/25 04:04:20;;;;;;;36.03;18.20;;;77.40;2227.20;;;;;;4955699;29;20039;-59
2022/02/25 04:06:46;;;;;;;37.17;16.65;;;77.40;2227.20;;;;;;4955269;29;20384;-63
2022/02/25 04:09:12;;;;;;;34.35;18.02;;;77.40;2227.20;;;;;;4955357;29;20394;-66
2022/02/25 04:11:38;;;;;;;30.60;16.40;;;77.40;2227.20;;;;;;4955029;29;20063;-63
2022/02/25 04:14:04;;;;;;;33.92;18.63;;;77.30;2227.20;;;;;;4955316;29;20019;-63
2022/02/25 04:16:30;;;;;;;36.40;16.80;;;77.30;2227.20;;;;;;4953969;29;20027;-63
2022/02/25 04:18:56;;;;;;;30.83;17.08;;;77.30;2227.20;;;;;;4955298;29;20496;-61
2022/02/25 04:21:22;;;;;;;31.05;17.20;;;77.30;2227.20;;;;;;4955046;29;20430;-61
2022/02/25 04:23:47;;;;;;;33.47;17.48;;;77.30;2227.20;;;;;;4953541;29;20050;-65
2022/02/25 04:26:13;;;;;;;36.53;18.23;;;77.30;2227.20;;;;;;4954862;29;20035;-66
2022/02/25 04:28:39;;;;;;;38.55;20.17;;;77.30;2227.20;;;;;;4954655;29;20034;-64
2022/02/25 04:31:04;;;;;;;41.17;20.42;;;77.30;2227.20;;;;;;4953519;29;20057;-62
2022/02/25 04:33:30;;;;;;;40.30;20.50;;;77.20;2227.20;;;;;;4955055;29;20381;-61
2022/02/25 04:35:56;;;;;;;37.55;19.75;;;77.10;2227.20;;;;;;4954526;29;20035;-62
2022/02/25 04:38:22;;;;;;;39.90;20.75;;;77.00;2227.20;;;;;;4954762;29;20426;-59
2022/02/25 04:40:48;;;;;;;41.03;20.30;;;76.80;2227.20;;;;;;4954569;28;20486;-63
2022/02/25 04:43:14;;;;;;;39.72;20.00;;;52.10;2227.20;;;;;;4954670;29;20081;-58
2022/02/25 04:45:39;;;;;;;38.70;20.17;;;51.80;2227.20;;;;;;4954702;29;20074;-64
2022/02/25 04:48:05;;;;;;;36.72;18.63;;;51.50;2227.20;;;;;;4953282;29;20478;-64
2022/02/25 04:50:31;;;;;;;35.08;17.83;;;51.60;2227.20;;;;;;4954608;29;20031;-61
2022/02/25 04:52:57;;;;;;;33.30;17.08;;;51.60;2227.20;;;;;;4955060;29;20031;-64
2022/02/25 04:55:23;;;;;;;40.97;18.98;;;51.60;2227.20;;;;;;4954385;29;20492;-62
2022/02/25 04:57:48;;;;;;;36.78;18.67;;;51.60;2227.20;;;;;;4954592;29;20035;-61
2022/02/25 05:00:15;;;;;;;35.97;18.35;;;51.20;2227.20;;;;;;4954378;29;20027;-62
2022/02/25 05:02:43;;;;;;;39.78;19.63;;;51.60;2227.20;;;;;;4952920;29;20031;-66
2022/02/25 05:05:10;;;;;;;48.45;26.33;;;51.60;2227.20;;;;;;4954340;29;20035;-59
2022/02/25 05:07:36;;;;;;;41.55;21.58;;;51.70;2227.20;;;;;;4954704;29;20031;-63
2022/02/25 05:10:03;;;;;;;43.53;23.35;;;51.60;2227.20;;;;;;4957520;28;20059;-60
2022/02/25 05:12:28;;;;;;;47.42;24.83;;;51.60;2227.20;;;;;;4960779;29;20035;-63
2022/02/25 05:20:26;;;;;;;74.18;33.85;;;51.80;2227.20;;;;;;4959380;28;20393;-64
2022/02/25 05:22:54;;;;;;;72.57;34.78;;;51.90;2227.20;;;;;;4961070;29;20031;-64
2022/02/25 05:25:24;;;;;;;66.35;31.90;;;51.90;2227.20;;;;;;4960641;29;20031;-65
2022/02/25 05:27:51;;;;;;;61.30;29.52;;;51.90;2227.20;;;;;;4960686;28;20110;-67
2022/02/25 05:30:18;;;;;;;67.55;33.20;;;52.00;2227.20;;;;;;4960985;29;20381;-65
2022/02/25 05:32:46;;;;;;;49.08;25.27;;;52.10;2227.20;;;;;;4960726;29;20102;-64
2022/02/25 05:35:11;;;;;;;47.45;22.70;;;52.00;2227.20;;;;;;4934468;29;20059;-65
2022/02/25 05:37:38;;;;;;;45.78;23.73;;;52.00;2227.20;;;;;;4940306;29;20019;-58
2022/02/25 05:40:06;;;;;;;47.60;23.75;;;52.00;2227.20;;;;;;4939895;29;20466;-65
2022/02/25 05:42:33;;;;;;;55.08;26.77;;;52.00;2227.20;;;;;;4922231;29;20030;-63
2022/02/25 05:45:00;;;;;;;53.55;24.65;;;52.10;2227.20;;;;;;4929357;29;20079;-65
2022/02/25 05:47:27;;;;;;;56.10;29.40;;;52.10;2227.20;;;;;;4941422;29;20106;-60
2022/02/25 05:49:53;;;;;;;55.40;28.88;;;76.80;2227.20;;;;;;4941038;29;20454;-62
2022/02/25 05:52:19;;;;;;;86.55;41.80;;;76.80;2227.20;;;;;;4941400;29;20036;-65
2022/02/25 05:54:44;;;;;;;89.75;42.35;;;76.90;2227.20;;;;;;4953061;29;20070;-62
2022/02/25 05:57:10;;;;;;;88.15;42.83;;;77.00;2227.20;;;;;;4942453;29;20024;-59
2022/02/25 05:59:36;;;;;;;58.55;30.88;;;77.00;2227.20;;;;;;4940860;29;20473;-66
2022/02/25 06:02:03;;;;;;;66.45;31.92;;;77.10;2227.20;;;;;;4940982;29;20031;-66
2022/02/25 06:04:29;;;;;;;52.10;27.38;;;77.20;2227.20;;;;;;4941364;29;20040;-64
2022/02/25 06:06:54;;;;;;;114.55;54.85;;;77.30;2227.20;;;;;;4940957;29;20043;-64
2022/02/25 06:09:20;;;;;;;95.78;45.05;;;77.40;2227.20;;;;;;4940133;29;20066;-66
2022/02/25 06:11:46;;;;;;;89.93;46.83;;;77.70;2227.20;;;;;;4939922;29;20047;-67
2022/02/25 06:14:11;;;;;;;67.47;37.58;;;102.50;2227.20;;;;;;4940554;29;20034;-64
2022/02/25 06:16:40;;;;;;;90.50;47.97;;;102.60;2227.20;;;;;;4940764;29;20031;-59
2022/02/25 06:19:07;;;;;;;80.82;42.30;;;102.80;2227.20;;;;;;4940666;29;20067;-64
2022/02/25 06:21:33;;;;;;;99.03;49.92;;;103.10;2227.20;;;;;;4938082;29;20082;-64
2022/02/25 06:23:59;;;;;;;89.63;48.28;;;128.10;2252.80;;;;;;4938548;29;20043;-63
2022/02/25 06:26:24;;;;;;;102.55;55.00;;;128.90;2227.20;;;;;;4945385;29;20051;-66
2022/02/25 06:28:52;;;;;;;91.72;46.50;;;153.90;2176.00;;;;;;4957833;28;20122;-66
2022/02/25 06:31:18;;;;;;;110.53;56.45;;;179.50;2022.40;;;;;;4957928;29;20478;-62
2022/02/25 06:33:44;;;;;;;71.45;39.90;;;179.40;1971.20;;;;;;4938131;29;20032;-66
2022/02/25 06:36:10;;;;;;;73.25;36.45;;;179.40;1971.20;;;;;;4937828;29;20028;-63
2022/02/25 06:38:36;;;;;;;78.47;42.55;;;205.30;1817.60;;;;;;4938163;29;20039;-64
2022/02/25 06:41:02;;;;;;;75.10;40.95;;;205.60;1766.40;;;;;;4937220;29;20098;-61
2022/02/25 06:43:28;;;;;;;74.88;42.28;;;205.70;1715.20;;;;;;4938437;29;20028;-67
2022/02/25 06:45:54;;;;;;;75.88;39.25;;;205.20;1766.40;;;;;;4937057;29;20478;-65
2022/02/25 06:48:20;;;;;;;80.38;41.70;;;180.00;1817.60;;;;;;4937476;29;20055;-66
2022/02/25 06:50:46;;;;;;;82.30;46.33;;;179.60;1894.40;;;;;;4935860;29;20126;-59
2022/02/25 06:53:11;;;;;;;82.97;45.33;;;231.20;1638.40;;;;;;4936144;29;20123;-67
2022/02/25 06:55:38;;;;;;;86.30;47.92;;;281.90;1536.00;;;;;;4937880;29;20028;-67
2022/02/25 06:58:05;;;;;;;103.32;61.00;;;332.90;1408.00;;;;;;4937959;29;20469;-68
2022/02/25 07:00:36;;;;;;;244.65;128.60;;;358.90;1254.40;;;;;;4935829;29;20482;-66
2022/02/25 07:03:03;;;;;;;118.85;67.07;;;384.70;1177.60;;;;;;4933545;29;20039;-65
2022/02/25 07:05:29;;;;;;;322.63;168.90;;;410.00;1126.40;;;;;;4937063;29;20393;-63
2022/02/25 07:07:55;;;;;;;84.93;50.95;;;435.40;1049.60;;;;;;4936739;29;20020;-62
2022/02/25 07:10:21;;;;;;;108.20;67.40;;;435.70;998.40;;;;;;4936826;29;20450;-58
2022/02/25 07:12:48;;;;;;;84.38;50.83;;;435.70;998.40;;;;;;4936911;29;20079;-64
2022/02/25 07:43:54;;;;;;;36.50;26.42;;;410.20;1049.60;;;;;;5152218;27;20426;-61
2022/02/25 07:46:20;;;;;;;31.77;23.05;;;487.20;844.80;;;;;;5152726;27;20027;-60
2022/02/25 07:48:46;;;;;;;41.03;28.92;;;512.00;844.80;;;;;;5148193;27;20029;-60
2022/02/25 07:51:12;;;;;;;34.70;24.35;;;487.30;870.40;;;;;;5152393;27;20027;-60
2022/02/25 07:53:38;;;;;;;49.63;32.72;;;537.80;793.60;;;;;;5152752;27;20037;-60
2022/02/25 07:56:04;;;;;;;123.88;79.07;;;563.60;742.40;;;;;;5152397;27;20023;-59
2022/02/25 07:58:32;;;;;;;86.47;57.20;;;589.10;742.40;;;;;;5152152;27;20027;-59
2022/02/25 08:00:59;;;;;;;189.27;118.78;;;615.20;665.60;;;;;;5152207;27;20042;-59
2022/02/25 08:03:24;;;;;;;285.45;206.35;;;640.10;665.60;;;;;;5151852;27;20467;-59
2022/02/25 08:05:50;;;;;;;50.17;36.20;;;640.80;640.00;;;;;;5150773;27;20168;-59
2022/02/25 08:08:16;;;;;;;28.25;21.30;;;666.50;614.40;;;;;;5152413;27;20030;-59
2022/02/25 08:10:41;;;;;;;59.53;39.92;;;691.80;563.20;;;;;;5152421;27;20174;-60
2022/02/25 08:13:12;;;;;;;72.35;49.72;;;717.00;563.20;;;;;;5150598;27;20042;-59
2022/02/25 08:15:37;;;;;;;37.40;24.40;;;717.10;563.20;;;;;;5150646;27;20023;-60
2022/02/25 08:18:05;;;;;;;55.53;39.17;;;717.10;537.60;;;;;;5149460;27;20121;-59
2022/02/25 08:20:31;;;;;;;39.45;31.80;;;717.70;537.60;;;;;;5149873;27;20019;-59
2022/02/25 08:22:57;;;;;;;36.47;30.88;;;742.70;537.60;;;;;;5149540;27;20113;-59
2022/02/25 08:25:24;;;;;;;50.28;44.80;;;742.90;537.60;;;;;;5148294;27;20102;-60
2022/02/25 08:27:49;;;;;;;32.40;27.02;;;768.20;512.00;;;;;;5150015;27;20030;-60
2022/02/25 08:30:15;;;;;;;31.92;23.35;;;768.50;512.00;;;;;;5149618;27;20018;-60
2022/02/25 08:32:50;;;;;;;32.03;25.95;;;793.70;486.40;;;;;;5150346;27;20078;-60
2022/02/25 08:35:18;;;;;;;30.45;22.08;;;819.20;460.80;;;;;;5150162;27;20011;-60
2022/02/25 08:37:45;;;;;;;27.75;19.52;;;819.60;460.80;;;;;;5150039;27;20023;-59
2022/02/25 08:40:12;;;;;;;28.67;21.48;;;845.00;460.80;;;;;;5150173;27;20030;-60
2022/02/25 08:42:39;;;;;;;38.63;27.85;;;844.90;435.20;;;;;;5145030;27;20556;-60
2022/02/25 08:45:06;;;;;;;40.28;31.85;;;844.80;460.80;;;;;;5136100;27;20047;-59
2022/02/25 08:47:31;;;;;;;34.17;27.65;;;870.50;409.60;;;;;;5135931;27;20483;-60
2022/02/25 08:49:57;;;;;;;27.00;22.40;;;870.50;409.60;;;;;;5133910;27;20061;-61
2022/02/25 08:52:23;;;;;;;27.30;22.98;;;871.00;409.60;;;;;;5134834;27;20046;-60
2022/02/25 08:54:50;;;;;;;26.17;21.58;;;870.60;409.60;;;;;;5136151;27;20046;-61
2022/02/25 08:57:16;;;;;;;26.20;20.15;;;870.90;384.00;;;;;;5134415;27;20030;-60
2022/02/25 08:59:42;;;;;;;31.08;25.42;;;870.60;409.60;;;;;;5136331;27;20484;-59
2022/02/25 09:02:10;;;;;;;45.58;32.25;;;870.80;384.00;;;;;;5134736;27;20062;-63
2022/02/25 09:04:36;;;;;;;30.05;23.63;;;870.40;409.60;;;;;;5134417;27;20008;-62
2022/02/25 09:07:02;;;;;;;26.15;22.60;;;870.90;384.00;;;;;;5134697;27;20026;-62
2022/02/25 09:09:27;;;;;;;21.83;18.00;;;896.00;384.00;;;;;;5135018;27;20023;-60
2022/02/25 09:11:53;;;;;;;31.15;27.15;;;870.80;384.00;;;;;;5134652;27;20023;-62
2022/02/25 09:14:20;;;;;;;21.08;16.25;;;870.80;409.60;;;;;;5135349;27;20023;-63
2022/02/25 09:16:46;;;;;;;18.33;14.98;;;871.20;384.00;;;;;;5133908;27;20055;-60
2022/02/25 09:19:12;;;;;;;19.27;15.60;;;871.00;409.60;;;;;;5134346;27;20023;-62
2022/02/25 09:21:38;;;;;;;22.27;16.90;;;896.10;384.00;;;;;;5134717;27;20072;-61
2022/02/25 09:24:04;;;;;;;20.70;14.00;;;896.50;358.40;;;;;;5134642;27;20030;-61
2022/02/25 09:26:31;;;;;;;13.88;11.35;;;896.20;384.00;;;;;;5134859;27;20126;-62
2022/02/25 09:28:58;;;;;;;15.45;11.32;;;896.80;358.40;;;;;;5131842;27;20020;-61
2022/02/25 09:31:23;;;;;;;14.00;10.13;;;922.00;358.40;;;;;;5133126;27;20380;-61
2022/02/25 09:33:49;;;;;;;17.23;9.48;;;871.00;409.60;;;;;;5134681;27;20034;-59
2022/02/25 09:36:15;;;;;;;12.73;9.68;;;845.00;435.20;;;;;;5134107;27;20046;-59
2022/02/25 09:38:41;;;;;;;14.35;10.48;;;845.30;435.20;;;;;;5134640;27;20027;-61
2022/02/25 09:41:07;;;;;;;14.50;10.95;;;845.30;435.20;;;;;;5134438;27;20035;-62
2022/02/25 09:43:33;;;;;;;12.60;9.77;;;845.60;409.60;;;;;;5134687;27;20399;-60
2022/02/25 09:46:05;;;;;;;14.63;9.90;;;870.40;409.60;;;;;;5134138;27;20034;-60
2022/02/25 09:48:31;;;;;;;13.90;10.35;;;870.40;409.60;;;;;;5129351;27;20452;-63
2022/02/25 09:50:57;;;;;;;11.98;9.00;;;870.70;409.60;;;;;;5133928;27;20044;-61
2022/02/25 09:53:23;;;;;;;11.05;7.93;;;871.20;409.60;;;;;;5134346;27;20712;-60
2022/02/25 09:55:49;;;;;;;12.30;9.05;;;845.60;435.20;;;;;;5132958;27;20056;-60
2022/02/25 09:58:15;;;;;;;10.73;8.45;;;870.40;435.20;;;;;;5134100;27;20095;-58
2022/02/25 10:00:43;;;;;;;10.82;7.85;;;845.40;435.20;;;;;;5133957;27;20023;-55
2022/02/25 10:03:15;;;;;;;11.77;8.57;;;845.20;435.20;;;;;;5131911;27;20015;-58
2022/02/25 10:05:42;;;;;;;11.20;7.43;;;845.40;460.80;;;;;;5131136;27;20020;-58
2022/02/25 10:08:21;;;;;;;8.07;6.82;;;845.70;435.20;;;;;;5131675;27;20011;-58
2022/02/25 10:10:50;;;;;;;9.85;7.57;;;845.10;460.80;;;;;;5133447;27;20023;-58
2022/02/25 10:13:18;;;;;;;11.02;6.10;;;845.30;435.20;;;;;;5134046;27;20035;-59
2022/02/25 10:15:48;;;;;;;8.82;5.78;;;845.10;460.80;;;;;;5133995;27;20023;-58
2022/02/25 10:18:26;;;;;;;7.25;5.70;;;845.30;435.20;;;;;;5133291;27;20021;-58
2022/02/25 10:21:10;;;;;;;9.82;5.93;;;844.90;460.80;;;;;;5130210;27;20027;-57
2022/02/25 10:23:45;;;;;;;9.10;6.72;;;845.50;435.20;;;;;;5131757;27;20026;-58
2022/02/25 10:26:21;;;;;;;8.57;6.10;;;870.60;409.60;;;;;;5133013;27;20020;-62
2022/02/25 10:28:51;;;;;;;6.72;5.50;;;871.10;384.00;;;;;;5133513;27;20873;-57
2022/02/25 10:31:26;;;;;;;9.57;6.63;;;896.60;358.40;;;;;;5133631;27;20031;-55
2022/02/25 10:34:07;;;;;;;9.48;6.00;;;896.80;358.40;;;;;;5130374;27;20396;-58
2022/02/25 10:36:51;;;;;;;9.88;6.07;;;921.90;358.40;;;;;;5130335;27;20038;-58
2022/02/25 10:39:30;;;;;;;16.92;12.30;;;896.20;358.40;;;;;;5121988;27;20439;-62
2022/02/25 10:42:11;;;;;;;17.92;14.80;;;870.60;409.60;;;;;;5131777;27;20482;-61
2022/02/25 10:44:49;;;;;;;17.27;15.50;;;845.60;409.60;;;;;;5127430;27;20031;-57
2022/02/25 10:47:22;;;;;;;14.00;12.55;;;870.50;409.60;;;;;;5113619;28;20035;-59
2022/02/25 10:50:08;;;;;;;5.45;4.93;;;845.60;409.60;;;;;;5115077;27;20015;-58
2022/02/25 10:52:45;;;;;;;7.13;3.60;;;820.00;435.20;;;;;;5133706;27;20092;-59
2022/02/25 10:55:18;;;;;;;6.90;2.85;;;845.50;435.20;;;;;;5133931;27;20027;-56
2022/02/25 10:57:44;;;;;;;8.98;2.85;;;819.70;435.20;;;;;;5132855;27;20028;-60
2022/02/25 11:00:12;;;;;;;8.40;4.88;;;844.80;435.20;;;;;;5133775;27;20096;-61
2022/02/25 11:02:47;;;;;;;7.97;5.80;;;845.30;435.20;;;;;;5133739;27;20031;-58
2022/02/25 11:05:24;;;;;;;10.02;5.10;;;845.40;435.20;;;;;;5133865;27;20476;-56
2022/02/25 11:07:55;;;;;;;8.45;5.30;;;870.90;384.00;;;;;;5133316;27;20035;-57
2022/02/25 11:10:24;;;;;;;4.72;3.50;;;870.80;409.60;;;;;;5133865;27;20150;-59
2022/02/25 11:12:51;;;;;;;5.65;3.67;;;845.60;409.60;;;;;;5133663;27;20089;-55
2022/02/25 11:15:22;;;;;;;6.60;4.32;;;845.40;409.60;;;;;;5134046;27;20027;-60
2022/02/25 11:17:49;;;;;;;6.43;4.20;;;845.50;435.20;;;;;;5133011;27;20483;-55
2022/02/25 11:20:27;;;;;;;8.48;3.60;;;870.90;384.00;;;;;;5133298;27;20038;-57
2022/02/25 11:22:58;;;;;;;8.80;6.40;;;870.80;409.60;;;;;;5133535;27;20027;-57
2022/02/25 11:25:25;;;;;;;8.48;4.53;;;870.90;409.60;;;;;;5134176;27;20033;-58
2022/02/25 11:27:51;;;;;;;7.47;3.63;;;845.00;435.20;;;;;;5133213;27;20027;-59
2022/02/25 11:30:30;;;;;;;5.32;3.65;;;844.80;460.80;;;;;;5133866;27;20035;-59
2022/02/25 11:33:04;;;;;;;7.22;4.20;;;845.50;435.20;;;;;;5132618;27;20429;-59
2022/02/25 11:35:46;;;;;;;7.85;4.00;;;870.80;435.20;;;;;;5133681;27;20029;-58
2022/02/25 11:38:13;;;;;;;6.65;4.85;;;870.50;409.60;;;;;;5132910;27;20045;-55
2022/02/25 11:40:50;;;;;;;9.38;5.40;;;845.60;409.60;;;;;;5134044;27;20439;-57
2022/02/25 11:43:17;;;;;;;9.88;6.00;;;845.50;409.60;;;;;;5133408;27;20043;-57
2022/02/25 11:45:51;;;;;;;6.70;4.50;;;845.60;409.60;;;;;;5133624;27;20030;-59
2022/02/25 11:48:22;;;;;;;8.32;4.90;;;845.30;435.20;;;;;;5133159;27;20028;-56
2022/02/25 11:50:54;;;;;;;11.38;6.03;;;845.60;435.20;;;;;;5133653;27;20020;-59
2022/02/25 11:53:26;;;;;;;5.65;4.68;;;870.80;409.60;;;;;;5133246;27;20051;-58
2022/02/25 11:55:53;;;;;;;10.15;3.30;;;870.80;384.00;;;;;;5133377;27;20019;-59
2022/02/25 11:58:50;;;;;;;7.85;4.82;;;845.40;435.20;;;;;;5132620;27;20028;-54
2022/02/25 12:01:20;;;;;;;7.20;3.95;;;845.60;435.20;;;;;;5133766;27;20088;-56
2022/02/25 12:04:09;;;;;;;9.18;4.20;;;870.60;384.00;;;;;;5133057;27;20035;-55
2022/02/25 12:07:00;;;;;;;7.47;4.97;;;870.80;384.00;;;;;;5133072;27;20162;-55
2022/02/25 12:09:45;;;;;;;8.40;4.63;;;845.60;435.20;;;;;;5133052;27;20035;-55
2022/02/25 12:12:22;;;;;;;10.52;6.53;;;845.10;409.60;;;;;;5133120;27;20049;-60
2022/02/25 12:15:09;;;;;;;11.80;5.78;;;844.80;435.20;;;;;;5133437;28;20019;-57
2022/02/25 12:17:50;;;;;;;9.63;6.00;;;845.10;409.60;;;;;;5132829;27;20368;-57
2022/02/25 12:20:19;;;;;;;12.20;6.70;;;820.00;409.60;;;;;;5137039;27;20015;-61
2022/02/25 12:23:11;;;;;;;14.38;7.45;;;819.90;409.60;;;;;;5136960;27;20019;-61
2022/02/25 12:25:43;;;;;;;11.10;5.18;;;844.90;409.60;;;;;;5093723;28;20028;-62
2022/02/25 12:28:23;;;;;;;9.88;4.10;;;845.40;384.00;;;;;;5093601;28;20031;-62
2022/02/25 12:31:18;;;;;;;7.53;2.90;;;845.00;409.60;;;;;;5093914;28;20046;-58
2022/02/25 12:33:44;;;;;;;9.50;3.95;;;819.70;409.60;;;;;;5033082;28;20049;-59
2022/02/25 12:36:29;;;;;;;11.02;6.43;;;819.20;409.60;;;;;;5032166;28;20178;-55
2022/02/25 12:38:58;;;;;;;10.52;6.22;;;793.90;435.20;;;;;;5033160;28;20053;-62
2022/02/25 12:41:25;;;;;;;12.73;5.80;;;794.10;435.20;;;;;;5033447;28;20041;-59
2022/02/25 12:43:58;;;;;;;11.68;4.55;;;793.80;409.60;;;;;;5033163;28;20046;-62
2022/02/25 12:46:27;;;;;;;11.48;4.20;;;768.80;409.60;;;;;;5033150;28;20044;-58
2022/02/25 12:48:54;;;;;;;10.73;4.20;;;768.80;409.60;;;;;;5032336;28;20520;-59
2022/02/25 12:51:21;;;;;;;13.45;4.10;;;793.60;435.20;;;;;;5033448;28;20108;-60